createdAt,value
2023-01-25T00:00:01.509Z,14.25
2023-01-25T00:02:28.347Z,12.95
2023-01-25T00:04:55.085Z,14.13
2023-01-25T00:07:21.672Z,14.73
2023-01-25T00:09:48.409Z,15.25
2023-01-25T00:12:15.001Z,16.17
2023-01-25T00:14:41.745Z,13.82
2023-01-25T00:17:08.549Z,14.90
2023-01-25T00:19:35.099Z,14.07
2023-01-25T00:22:01.640Z,14.05
2023-01-25T00:24:28.363Z,15.40
2023-01-25T00:26:55.017Z,15.57
2023-01-25T00:29:21.564Z,14.07
2023-01-25T00:32:17.815Z,16.95
2023-01-25T00:35:22.059Z,18.42
2023-01-25T00:37:52.259Z,15.88
2023-01-25T00:40:19.099Z,15.00
2023-01-25T00:42:45.870Z,14.15
2023-01-25T00:45:13.065Z,13.63
2023-01-25T00:47:40.029Z,15.07
2023-01-25T00:50:07.823Z,13.85
2023-01-25T00:53:30.818Z,15.23
2023-01-25T00:56:34.423Z,14.93
2023-01-25T00:59:01.144Z,16.80
2023-01-25T01:01:29.343Z,15.02
2023-01-25T01:03:55.930Z,13.85
2023-01-25T01:07:00.254Z,14.05
2023-01-25T01:09:27.058Z,13.88
2023-01-25T01:11:54.359Z,13.80
2023-01-25T01:15:18.021Z,13.18
2023-01-25T01:18:40.954Z,14.68
2023-01-25T01:22:03.991Z,14.52
2023-01-25T01:24:30.609Z,17.20
2023-01-25T01:26:57.334Z,14.07
2023-01-25T01:29:24.119Z,15.90
2023-01-25T01:31:52.559Z,15.13
2023-01-25T01:34:19.488Z,17.00
2023-01-25T01:36:46.346Z,15.23
2023-01-25T01:39:13.120Z,14.70
2023-01-25T01:41:39.838Z,15.30
2023-01-25T01:44:10.501Z,16.05
2023-01-25T01:46:39.541Z,13.68
2023-01-25T01:49:20.881Z,14.95
2023-01-25T01:52:11.086Z,15.95
2023-01-25T01:54:43.359Z,14.43
2023-01-25T01:57:36.389Z,15.85
2023-01-25T02:00:29.239Z,15.07
2023-01-25T02:02:56.743Z,14.38
2023-01-25T02:05:26.735Z,17.15
2023-01-25T02:07:55.482Z,14.38
2023-01-25T02:10:24.065Z,15.75
2023-01-25T02:12:54.153Z,13.00
2023-01-25T02:15:20.943Z,14.93
2023-01-25T02:17:48.820Z,15.75
2023-01-25T02:20:28.998Z,14.27
2023-01-25T02:23:07.264Z,14.43
2023-01-25T02:25:33.880Z,15.15
2023-01-25T02:28:18.459Z,14.98
2023-01-25T02:30:45.741Z,14.68
2023-01-25T02:33:12.975Z,13.45
2023-01-25T02:35:53.772Z,12.85
2023-01-25T02:38:21.300Z,13.57
2023-01-25T02:40:58.805Z,13.13
2023-01-25T02:43:29.784Z,13.70
2023-01-25T02:46:10.832Z,13.57
2023-01-25T02:48:37.614Z,11.77
2023-01-25T02:51:08.357Z,12.48
2023-01-25T02:53:35.294Z,11.25
2023-01-25T02:56:02.333Z,12.85
2023-01-25T02:58:29.026Z,12.15
2023-01-25T03:00:57.475Z,11.98
2023-01-25T03:03:24.207Z,13.90
2023-01-25T03:05:50.967Z,11.55
2023-01-25T03:08:17.684Z,12.88
2023-01-25T03:10:45.328Z,15.23
2023-01-25T03:13:12.003Z,11.10
2023-01-25T03:15:38.742Z,12.95
2023-01-25T03:18:05.817Z,12.95
2023-01-25T03:20:32.724Z,13.82
2023-01-25T03:22:59.319Z,11.57
2023-01-25T03:25:26.935Z,13.93
2023-01-25T03:27:54.149Z,15.00
2023-01-25T03:30:20.704Z,14.80
2023-01-25T03:32:47.482Z,13.05
2023-01-25T03:35:14.047Z,14.70
2023-01-25T03:37:40.674Z,14.35
2023-01-25T03:40:08.053Z,14.80
2023-01-25T03:42:34.597Z,16.33
2023-01-25T03:45:01.365Z,13.60
2023-01-25T03:47:28.523Z,15.88
2023-01-25T03:49:55.223Z,16.33
2023-01-25T03:52:24.096Z,16.45
2023-01-25T03:54:50.638Z,17.42
2023-01-25T03:57:17.312Z,15.88
2023-01-25T03:59:43.854Z,14.60
2023-01-25T04:02:12.666Z,16.00
2023-01-25T04:04:39.243Z,15.63
2023-01-25T04:07:05.816Z,15.95
2023-01-25T04:09:32.420Z,16.58
2023-01-25T04:11:59.066Z,15.65
2023-01-25T04:14:42.501Z,18.27
2023-01-25T04:17:10.795Z,17.30
2023-01-25T04:19:37.729Z,17.20
2023-01-25T04:22:04.451Z,16.10
2023-01-25T04:24:31.236Z,15.35
2023-01-25T04:26:58.103Z,14.93
2023-01-25T04:29:39.151Z,14.20
2023-01-25T04:32:07.112Z,15.38
2023-01-25T04:34:33.788Z,16.02
2023-01-25T04:37:00.509Z,16.10
2023-01-25T04:39:27.155Z,17.35
2023-01-25T04:41:53.725Z,16.27
2023-01-25T04:44:20.285Z,17.00
2023-01-25T04:46:46.936Z,17.17
2023-01-25T04:49:13.731Z,17.98
2023-01-25T04:51:41.532Z,16.48
2023-01-25T04:54:08.210Z,16.83
2023-01-25T04:56:35.412Z,16.55
2023-01-25T04:59:02.088Z,18.17
2023-01-25T05:01:28.748Z,16.65
2023-01-25T05:03:55.482Z,16.60
2023-01-25T05:06:22.121Z,15.73
2023-01-25T05:08:48.753Z,15.35
2023-01-25T05:11:15.340Z,15.65
2023-01-25T05:13:41.923Z,16.10
2023-01-25T05:16:09.164Z,16.08
2023-01-25T05:18:47.978Z,16.75
2023-01-25T05:21:34.400Z,17.73
2023-01-25T05:24:01.286Z,18.15
2023-01-25T05:26:46.653Z,17.00
2023-01-25T05:29:13.460Z,16.25
2023-01-25T05:31:40.280Z,15.32
2023-01-25T05:34:08.272Z,16.17
2023-01-25T05:36:35.008Z,16.08
2023-01-25T05:39:01.892Z,16.40
2023-01-25T05:41:30.309Z,15.60
2023-01-25T05:43:57.031Z,16.50
2023-01-25T05:46:23.789Z,17.30
2023-01-25T05:48:50.471Z,17.70
2023-01-25T05:51:17.052Z,16.52
2023-01-25T05:53:43.701Z,17.40
2023-01-25T05:56:10.936Z,18.85
2023-01-25T05:58:38.665Z,18.02
2023-01-25T06:01:07.281Z,16.88
2023-01-25T06:03:34.227Z,16.98
2023-01-25T06:06:02.802Z,16.02
2023-01-25T06:08:30.608Z,17.63
2023-01-25T06:10:57.958Z,19.92
2023-01-25T06:13:25.157Z,17.05
2023-01-25T06:15:53.180Z,17.30
2023-01-25T06:18:20.299Z,17.52
2023-01-25T06:20:47.063Z,18.60
2023-01-25T06:23:13.964Z,18.15
2023-01-25T06:25:40.623Z,20.13
2023-01-25T06:28:07.294Z,17.42
2023-01-25T06:30:34.656Z,17.80
2023-01-25T06:33:02.183Z,18.42
2023-01-25T06:35:30.952Z,17.75
2023-01-25T06:37:58.098Z,17.70
2023-01-25T06:40:25.718Z,16.70
2023-01-25T06:42:52.369Z,18.52
2023-01-25T06:45:18.986Z,18.65
2023-01-25T06:47:46.727Z,20.35
2023-01-25T06:50:19.661Z,19.13
2023-01-25T06:52:54.800Z,18.35
2023-01-25T06:57:48.423Z,26.73
2023-01-25T07:00:16.222Z,22.40
2023-01-25T07:02:42.926Z,22.77
2023-01-25T07:05:10.119Z,21.30
2023-01-25T07:07:37.061Z,21.13
2023-01-25T07:10:03.993Z,21.48
2023-01-25T07:12:31.046Z,21.60
2023-01-25T07:14:57.815Z,20.95
2023-01-25T07:17:24.426Z,18.25
2023-01-25T07:19:51.089Z,21.17
2023-01-25T07:22:17.982Z,20.17
2023-01-25T07:24:49.896Z,20.38
2023-01-25T07:27:17.084Z,20.73
2023-01-25T07:29:43.892Z,20.33
2023-01-25T07:32:13.731Z,21.65
2023-01-25T07:34:40.519Z,20.35
2023-01-25T07:37:07.311Z,22.13
2023-01-25T07:39:33.954Z,26.02
2023-01-25T07:42:00.635Z,22.67
2023-01-25T07:44:27.386Z,22.17
2023-01-25T07:46:57.970Z,23.25
2023-01-25T07:49:24.690Z,20.88
2023-01-25T07:51:51.370Z,21.55
2023-01-25T07:54:18.117Z,19.30
2023-01-25T07:56:44.916Z,23.05
2023-01-25T07:59:11.814Z,22.08
2023-01-25T08:01:39.858Z,21.95
2023-01-25T08:04:07.191Z,21.98
2023-01-25T08:06:38.607Z,23.00
2023-01-25T08:09:13.080Z,19.23
2023-01-25T08:11:39.744Z,19.95
2023-01-25T08:14:06.509Z,21.95
2023-01-25T08:16:33.309Z,23.05
2023-01-25T08:19:03.035Z,21.13
2023-01-25T08:21:32.881Z,23.05
2023-01-25T08:24:01.675Z,21.20
2023-01-25T08:26:29.044Z,22.33
2023-01-25T08:28:56.719Z,21.65
2023-01-25T08:31:26.519Z,22.77
2023-01-25T08:33:54.031Z,22.52
2023-01-25T08:36:23.936Z,21.83
2023-01-25T08:38:55.875Z,22.33
2023-01-25T08:41:23.765Z,25.13
2023-01-25T08:43:52.557Z,23.70
2023-01-25T08:46:19.886Z,23.05
2023-01-25T08:48:46.617Z,21.35
2023-01-25T08:51:16.036Z,20.75
2023-01-25T08:53:42.977Z,26.02
2023-01-25T08:56:12.142Z,23.50
2023-01-25T08:58:41.647Z,24.20
2023-01-25T09:01:10.879Z,23.85
2023-01-25T09:03:44.028Z,22.38
2023-01-25T09:06:11.559Z,20.98
2023-01-25T09:08:39.035Z,25.23
2023-01-25T09:11:08.638Z,25.90
2023-01-25T09:13:35.724Z,24.48
2023-01-25T09:16:09.825Z,29.15
2023-01-25T09:18:37.919Z,26.35
2023-01-25T09:21:09.256Z,26.60
2023-01-25T09:23:50.280Z,22.35
2023-01-25T09:26:23.394Z,24.17
2023-01-25T09:28:52.504Z,22.20
2023-01-25T09:31:23.233Z,21.33
2023-01-25T09:33:52.309Z,20.65
2023-01-25T09:36:19.726Z,21.50
2023-01-25T09:38:46.418Z,23.05
2023-01-25T09:41:42.147Z,21.15
2023-01-25T09:44:15.513Z,22.17
2023-01-25T09:46:56.389Z,23.42
2023-01-25T09:49:43.827Z,24.23
2023-01-25T09:52:48.203Z,25.02
2023-01-25T09:55:18.530Z,25.58
2023-01-25T09:57:47.930Z,22.17
2023-01-25T10:00:34.893Z,22.20
2023-01-25T10:03:10.544Z,22.85
2023-01-25T10:05:46.577Z,24.75
2023-01-25T10:08:51.510Z,25.13
2023-01-25T10:11:27.827Z,22.30
2023-01-25T10:13:58.169Z,24.20
2023-01-25T10:16:33.256Z,23.92
2023-01-25T10:19:22.462Z,24.92
2023-01-25T10:21:59.694Z,26.33
2023-01-25T10:24:50.997Z,24.55
2023-01-25T10:27:26.519Z,28.15
2023-01-25T10:29:57.683Z,30.60
2023-01-25T10:32:32.361Z,25.23
2023-01-25T10:35:17.535Z,25.23
2023-01-25T10:37:50.804Z,31.15
2023-01-25T10:40:26.808Z,26.02
2023-01-25T10:43:02.724Z,27.90
2023-01-25T10:45:29.361Z,22.85
2023-01-25T10:48:03.348Z,25.60
2023-01-25T10:50:41.071Z,26.55
2023-01-25T10:53:30.877Z,27.58
2023-01-25T10:56:13.195Z,26.20
2023-01-25T10:58:48.722Z,25.50
2023-01-25T11:01:31.503Z,27.05
2023-01-25T11:03:59.369Z,27.15
2023-01-25T11:06:30.388Z,24.60
2023-01-25T11:08:57.013Z,25.58
2023-01-25T11:11:26.693Z,25.27
2023-01-25T11:13:55.249Z,23.88
2023-01-25T11:16:32.070Z,22.88
2023-01-25T11:19:00.442Z,26.15
2023-01-25T11:21:32.954Z,27.23
2023-01-25T11:24:11.600Z,24.55
2023-01-25T11:26:40.791Z,25.67
2023-01-25T11:29:15.209Z,25.27
2023-01-25T11:31:47.910Z,25.42
2023-01-25T11:34:25.010Z,28.02
2023-01-25T11:37:16.427Z,27.85
2023-01-25T11:39:58.164Z,25.67
2023-01-25T11:42:59.383Z,29.25
2023-01-25T11:45:41.981Z,27.58
2023-01-25T11:48:35.353Z,26.90
2023-01-25T11:51:20.791Z,25.60
2023-01-25T11:56:53.354Z,43.50
2023-01-25T11:59:41.101Z,30.25
2023-01-25T12:02:29.900Z,30.08
2023-01-25T12:05:21.157Z,27.08
2023-01-25T12:07:58.740Z,28.38
2023-01-25T12:10:28.164Z,26.77
2023-01-25T12:12:57.627Z,25.98
2023-01-25T12:15:27.107Z,101.85
2023-01-25T12:18:31.606Z,159.18
2023-01-25T12:21:31.561Z,38.65
2023-01-25T12:24:37.477Z,24.92
2023-01-25T12:27:16.140Z,32.42
2023-01-25T12:29:49.808Z,29.17
2023-01-25T12:32:33.518Z,27.63
2023-01-25T12:35:11.355Z,38.25
2023-01-25T12:37:43.478Z,31.30
2023-01-25T12:40:15.365Z,31.35
2023-01-25T12:42:51.112Z,28.50
2023-01-25T12:45:24.519Z,27.05
2023-01-25T12:47:59.505Z,28.17
2023-01-25T12:50:30.560Z,28.10
2023-01-25T12:53:26.244Z,34.15
2023-01-25T12:55:54.318Z,28.58
2023-01-25T12:58:38.349Z,28.02
2023-01-25T13:01:26.868Z,31.20
2023-01-25T13:04:29.158Z,28.52
2023-01-25T13:07:08.656Z,28.67
2023-01-25T13:09:44.106Z,27.90
2023-01-25T13:12:12.630Z,30.00
2023-01-25T13:14:42.415Z,26.65
2023-01-25T13:17:24.699Z,34.58
2023-01-25T13:19:53.307Z,31.70
2023-01-25T13:22:44.854Z,31.85
2023-01-25T13:25:17.490Z,27.42
2023-01-25T13:27:44.268Z,27.50
2023-01-25T13:30:26.405Z,27.95
2023-01-25T13:32:56.333Z,27.08
2023-01-25T13:35:27.321Z,26.75
2023-01-25T13:38:31.348Z,24.40
2023-01-25T13:41:12.042Z,28.98
2023-01-25T13:43:40.880Z,28.40
2023-01-25T13:46:10.342Z,26.20
2023-01-25T13:48:46.535Z,27.50
2023-01-25T13:51:15.397Z,28.42
2023-01-25T13:53:43.261Z,27.33
2023-01-25T13:56:31.554Z,27.02
2023-01-25T13:58:58.446Z,30.63
2023-01-25T14:01:26.112Z,29.92
2023-01-25T14:04:02.200Z,27.00
2023-01-25T14:06:39.132Z,25.02
2023-01-25T14:09:20.779Z,27.40
2023-01-25T14:11:59.323Z,25.88
2023-01-25T14:14:34.807Z,25.17
2023-01-25T14:17:18.265Z,27.35
2023-01-25T14:19:56.057Z,26.15
2023-01-25T14:22:29.785Z,23.63
2023-01-25T14:25:18.452Z,23.63
2023-01-25T14:27:51.065Z,25.20
2023-01-25T14:30:18.060Z,26.38
2023-01-25T14:32:44.782Z,30.98
2023-01-25T14:35:42.492Z,29.98
2023-01-25T14:38:33.283Z,26.10
2023-01-25T14:41:16.449Z,25.77
2023-01-25T14:43:46.224Z,24.67
2023-01-25T14:46:23.656Z,24.65
2023-01-25T14:48:51.824Z,24.00
2023-01-25T14:51:30.300Z,25.15
2023-01-25T14:54:03.882Z,22.50
2023-01-25T14:56:34.971Z,26.15
2023-01-25T14:59:02.541Z,24.88
2023-01-25T15:01:40.867Z,26.33
2023-01-25T15:04:12.832Z,26.10
2023-01-25T15:06:50.842Z,23.90
2023-01-25T15:09:38.541Z,26.20
2023-01-25T15:12:17.156Z,22.92
2023-01-25T15:14:52.883Z,25.38
2023-01-25T15:17:46.024Z,26.20
2023-01-25T15:20:36.298Z,27.40
2023-01-25T15:23:23.157Z,22.90
2023-01-25T15:25:57.811Z,26.95
2023-01-25T15:28:27.684Z,27.65
2023-01-25T15:30:55.183Z,26.40
2023-01-25T15:33:29.844Z,24.42
2023-01-25T15:35:56.567Z,28.17
2023-01-25T15:38:24.392Z,26.27
2023-01-25T15:40:51.437Z,24.65
2023-01-25T15:43:19.788Z,27.25
2023-01-25T15:45:48.960Z,28.00
2023-01-25T15:48:19.578Z,24.02
2023-01-25T15:50:46.255Z,23.15
2023-01-25T15:53:16.131Z,24.17
2023-01-25T15:55:45.997Z,21.90
2023-01-25T15:58:26.489Z,24.90
2023-01-25T16:00:53.359Z,24.23
2023-01-25T16:03:22.760Z,23.45
2023-01-25T16:05:54.555Z,24.92
2023-01-25T16:08:21.367Z,24.90
2023-01-25T16:10:48.155Z,23.05
2023-01-25T16:13:14.964Z,23.92
2023-01-25T16:15:42.333Z,20.17
2023-01-25T16:18:14.159Z,22.73
2023-01-25T16:20:43.565Z,21.10
2023-01-25T16:23:14.607Z,20.67
2023-01-25T16:25:42.881Z,24.50
2023-01-25T16:28:16.606Z,23.90
2023-01-25T16:30:46.539Z,22.27
2023-01-25T16:33:13.348Z,20.70
2023-01-25T16:35:40.255Z,20.92
2023-01-25T16:38:06.983Z,22.50
2023-01-25T16:40:38.643Z,20.90
2023-01-25T16:43:05.828Z,24.60
2023-01-25T16:45:32.527Z,21.25
2023-01-25T16:47:59.136Z,21.08
2023-01-25T16:50:25.973Z,23.85
2023-01-25T16:52:54.385Z,18.77
2023-01-25T16:55:21.172Z,22.65
2023-01-25T16:57:51.713Z,25.33
2023-01-25T17:00:18.981Z,21.83
2023-01-25T17:02:58.285Z,22.70
2023-01-25T17:05:33.672Z,22.10
2023-01-25T17:08:00.502Z,23.52
2023-01-25T17:10:28.739Z,21.50
2023-01-25T17:12:55.412Z,19.98
2023-01-25T17:15:22.029Z,21.48
2023-01-25T17:17:48.986Z,19.58
2023-01-25T17:20:16.026Z,19.00
2023-01-25T17:22:44.227Z,22.10
2023-01-25T17:25:10.860Z,23.05
2023-01-25T17:27:37.446Z,26.23
2023-01-25T17:30:04.370Z,23.70
2023-01-25T17:32:32.068Z,25.52
2023-01-25T17:35:01.242Z,25.08
2023-01-25T17:37:27.960Z,28.48
2023-01-25T17:39:54.581Z,25.58
2023-01-25T17:42:22.060Z,23.15
2023-01-25T17:44:48.760Z,25.25
2023-01-25T17:47:15.452Z,26.70
2023-01-25T17:49:42.100Z,24.60
2023-01-25T17:52:08.865Z,25.02
2023-01-25T17:54:36.248Z,24.13
2023-01-25T17:57:02.864Z,24.00
2023-01-25T17:59:29.583Z,24.33
2023-01-25T18:01:56.422Z,22.30
2023-01-25T18:04:23.141Z,27.30
2023-01-25T18:06:49.925Z,24.35
2023-01-25T18:09:16.781Z,26.30
2023-01-25T18:11:43.423Z,22.60
2023-01-25T18:14:16.615Z,22.38
2023-01-25T18:16:44.415Z,22.15
2023-01-25T18:19:11.460Z,23.10
2023-01-25T18:21:38.632Z,22.15
2023-01-25T18:24:22.333Z,23.25
2023-01-25T18:26:50.252Z,22.88
2023-01-25T18:29:16.914Z,26.73
2023-01-25T18:31:43.651Z,24.20
2023-01-25T18:34:10.476Z,26.40
2023-01-25T18:36:37.162Z,26.15
2023-01-25T18:39:06.834Z,24.90
2023-01-25T18:41:33.499Z,25.33
2023-01-25T18:44:00.280Z,22.10
2023-01-25T18:46:26.949Z,26.02
2023-01-25T18:48:53.598Z,56.10
2023-01-25T18:51:22.450Z,29.45
2023-01-25T18:53:49.546Z,29.92
2023-01-25T18:56:21.228Z,25.60
2023-01-25T18:58:48.280Z,27.35
2023-01-25T19:01:17.308Z,23.52
2023-01-25T19:03:45.239Z,36.95
2023-01-25T19:06:12.559Z,30.00
2023-01-25T19:08:41.383Z,27.40
2023-01-25T19:11:14.271Z,29.17
2023-01-25T19:13:42.503Z,30.25
2023-01-25T19:16:13.901Z,23.77
2023-01-25T19:18:51.976Z,27.17
2023-01-25T19:21:24.861Z,25.55
2023-01-25T19:23:52.804Z,27.75
2023-01-25T19:26:21.786Z,28.65
2023-01-25T19:28:48.657Z,28.63
2023-01-25T19:31:22.341Z,25.80
2023-01-25T19:33:53.975Z,25.85
2023-01-25T19:36:20.900Z,28.38
2023-01-25T19:38:48.815Z,28.25
2023-01-25T19:41:16.630Z,27.02
2023-01-25T19:43:43.772Z,27.75
2023-01-25T19:46:14.765Z,29.17
2023-01-25T19:48:42.746Z,26.20
2023-01-25T19:51:11.586Z,27.02
2023-01-25T19:53:39.488Z,27.30
2023-01-25T19:56:08.278Z,26.95
2023-01-25T19:58:35.197Z,29.80
2023-01-25T20:01:09.842Z,27.38
2023-01-25T20:03:36.938Z,28.90
2023-01-25T20:06:05.087Z,27.90
2023-01-25T20:08:36.949Z,27.08
2023-01-25T20:11:10.352Z,24.85
2023-01-25T20:13:36.997Z,24.10
2023-01-25T20:16:04.201Z,27.70
2023-01-25T20:18:32.169Z,29.00
2023-01-25T20:21:00.948Z,26.85
2023-01-25T20:23:30.918Z,30.25
2023-01-25T20:26:09.257Z,27.73
2023-01-25T20:28:37.049Z,26.63
2023-01-25T20:31:04.998Z,28.52
2023-01-25T20:33:34.767Z,24.35
2023-01-25T20:36:02.693Z,22.30
2023-01-25T20:38:33.407Z,25.20
2023-01-25T20:41:06.579Z,27.63
2023-01-25T20:43:33.999Z,25.65
2023-01-25T20:46:02.292Z,26.33
2023-01-25T20:48:31.092Z,30.02
2023-01-25T20:51:02.066Z,27.45
2023-01-25T20:53:29.895Z,27.27
2023-01-25T20:55:58.041Z,28.38
2023-01-25T20:58:25.524Z,28.40
2023-01-25T21:00:52.584Z,29.15
2023-01-25T21:03:19.328Z,30.27
2023-01-25T21:05:57.631Z,28.35
2023-01-25T21:08:25.504Z,28.67
2023-01-25T21:10:55.168Z,28.90
2023-01-25T21:13:22.848Z,37.83
2023-01-25T21:16:04.456Z,30.25
2023-01-25T21:18:48.421Z,29.55
2023-01-25T21:21:29.489Z,27.77
2023-01-25T21:23:59.680Z,31.48
2023-01-25T21:26:29.270Z,28.88
2023-01-25T21:28:56.316Z,29.05
2023-01-25T21:31:26.004Z,51.53
2023-01-25T21:33:53.997Z,35.78
2023-01-25T21:36:20.790Z,36.15
2023-01-25T21:38:49.356Z,33.78
2023-01-25T21:41:24.593Z,31.95
2023-01-25T21:44:11.807Z,36.30
2023-01-25T21:46:38.773Z,33.63
2023-01-25T21:49:28.550Z,35.85
2023-01-25T21:51:59.070Z,33.85
2023-01-25T21:54:34.878Z,35.22
2023-01-25T21:57:04.822Z,35.30
2023-01-25T21:59:31.613Z,38.65
2023-01-25T22:01:58.209Z,38.65
2023-01-25T22:04:25.549Z,32.28
2023-01-25T22:06:52.606Z,35.75
2023-01-25T22:09:19.853Z,33.78
2023-01-25T22:11:46.859Z,31.27
2023-01-25T22:14:14.546Z,32.53
2023-01-25T22:16:41.457Z,30.65
2023-01-25T22:19:08.175Z,34.35
2023-01-25T22:21:34.785Z,35.50
2023-01-25T22:24:04.102Z,33.55
2023-01-25T22:26:42.556Z,36.72
2023-01-25T22:29:09.575Z,33.28
2023-01-25T22:31:36.319Z,30.10
2023-01-25T22:34:03.961Z,29.67
2023-01-25T22:36:31.167Z,32.20
2023-01-25T22:38:59.969Z,32.63
2023-01-25T22:41:29.192Z,37.25
2023-01-25T22:43:55.817Z,38.65
2023-01-25T22:46:24.563Z,35.90
2023-01-25T22:48:51.249Z,33.22
2023-01-25T22:51:25.678Z,34.35
2023-01-25T22:53:53.354Z,36.90
2023-01-25T22:56:31.975Z,33.30
2023-01-25T22:59:10.155Z,36.22
2023-01-25T23:01:36.785Z,29.63
2023-01-25T23:04:03.683Z,36.67
2023-01-25T23:06:35.623Z,36.03
2023-01-25T23:09:05.397Z,30.00
2023-01-25T23:11:37.852Z,29.63
2023-01-25T23:14:25.628Z,31.48
2023-01-25T23:16:52.358Z,29.67
2023-01-25T23:19:19.273Z,30.33
2023-01-25T23:21:45.925Z,31.55
2023-01-25T23:24:12.638Z,30.70
2023-01-25T23:26:39.769Z,34.58
2023-01-25T23:29:12.036Z,30.48
2023-01-25T23:31:38.715Z,32.53
2023-01-25T23:34:06.581Z,29.55
2023-01-25T23:36:35.875Z,29.38
2023-01-25T23:39:03.229Z,31.77
2023-01-25T23:41:30.459Z,31.52
2023-01-25T23:43:57.953Z,29.80
2023-01-25T23:46:25.378Z,33.95
2023-01-25T23:48:52.495Z,30.60
2023-01-25T23:51:19.659Z,30.70
2023-01-25T23:53:46.761Z,31.90
2023-01-25T23:56:18.976Z,30.95
2023-01-25T23:58:46.808Z,31.30
